الصفحة الرئيسية
METAR-TAF:

METAR-TAF

مطار :

مدينة الكويت, الكويت

مطار الكويت الدولي

دائرة عرض: 29-13N, خط طول: 047-59E, ارتفاع: 55 متر

مراقبة الطقس الحالي

تاريخ ووقت الإصدار 50 دقيقة قبل الساعة 23:00UTC
رياح هادئة
درجة الحرارة 12°درجة مئوية
الرطوبة 88%
ضغط 1013 hPa
الرؤية: 5000 متر
غشاء

METAR: OKBK 232300Z 00000KT 5000 BR NSC 12/10 Q1013 NOSIG

زمن: 02:50 (23:50 UTC)

توقعات

تاريخ ووقت الإصدار 7ساعات و 5 دقيقة قبل الساعة 16:45UTC
التوقعات صالحة من23 الساعة 18 UTC إلى 24 الساعة 24 UTC
ريح 8 عقدة من الجنوب/الجنوب الشرقي تتزايد حتى 18 عقدة
الرؤية: 7000 متر
مؤقت
من 23 الساعة 18 UTC إلى 24 الساعة 04 UTC
ريح 3 عقدةمن اتجاهات متغيرة
الرؤية: 4000 متر
العجاج

TAF: OKBK 231645Z 2318/2424 15008G18KT 7000 NSC TEMPO 2318/2404 VRB03KT 4000 HZ

أرصاد الطقس والتوقعات من أكثر من 4000 مطار (تقارير الطقس للمطار METAR والتنبؤ بالطقس بالمطارTAF).

المحطات المتاحة هي النقط الصفراء والحمراء على الخريطة.

حرك المؤشر فوق النقطة لمعرفة اسم المحطة.

ثم انقر لمعرفة أرصاد وتوقعات الطقس.

لتغيير الخارطة: اضغط على الأزرار الخضراء مع رمز الصليب الأسود للتكبير. على الزر الأخضر مع شرطة للتصغير، أو على الأسهم الخضراء للخرائط المجاورة.


METAR-TAF: